Finlay — CFN5265 — position and weather

sailwx.info

Track history (hours):
 
Tides and Currents Weather Stations Pressure Air Temp Water Temp Dewpoint Dewpoint Depression Visibility Wind Speed Wind Dir Waves Ship Positions

Finlay

Last reported at 2018-Jan-18 04:00 UTC. Time now 2018-Jan-18 04:16 UTC.
Position N 49°18' W 123°02'.

Length 13 m; draft 2.2 m.

Type: Towing. MMSI: 316013688.

Date/timePositionNaut miles runAvg speedWind from/ knotsBaromVisibWave heightAir tempDewpointWater temp
2018-Jan-18 04:00N 49°18' W 123°02'0 0.0
2018-Jan-18 03:29N 49°18' W 123°02'0 0.0
2018-Jan-18 03:00N 49°18' W 123°02'0 0.0
2018-Jan-18 02:30N 49°18' W 123°02'0 0.0
2018-Jan-18 02:00N 49°18' W 123°02'0 0.0
2018-Jan-18 01:30N 49°18' W 123°02'0 0.0
2018-Jan-18 01:00N 49°18' W 123°02'1 0.8
2018-Jan-18 00:00N 49°18' W 123°03'0 0.0
2018-Jan-17 23:55N 49°18' W 123°03'  
2018-Jan-12 15:00N 49°18' W 122°57'3 5.4
2018-Jan-12 14:30N 49°18' W 122°53'0 0.2
2018-Jan-12 14:00N 49°18' W 122°53'3 5.9
2018-Jan-12 13:30N 49°18' W 122°57'3 5.9
2018-Jan-12 13:00N 49°18' W 123°02'0 0.0
2018-Jan-11 23:06N 49°18' W 123°02'0 0.4
2018-Jan-11 23:00N 49°18' W 123°02'2 3.7
2018-Jan-11 22:31N 49°17' W 123°05'1 1.9
2018-Jan-11 22:00N 49°18' W 123°03'3 5.4
2018-Jan-11 21:30N 49°18' W 122°59'3 6.6
2018-Jan-11 20:58N 49°18' W 122°54'0 0.1
2018-Jan-11 20:30N 49°18' W 122°54'4 8.4
2018-Jan-11 20:00N 49°18' W 122°60'3 5.6
2018-Jan-11 19:30N 49°17' W 123°04'2 4.6
2018-Jan-11 19:00N 49°18' W 123°07'0 0.8
2018-Jan-11 18:30N 49°19' W 123°08'2 4.8
2018-Jan-11 18:00N 49°18' W 123°04'2 3.4
2018-Jan-11 17:30N 49°18' W 123°01'2 5.0
2018-Jan-11 17:01N 49°18' W 122°58'4 7.6
2018-Jan-11 16:30N 49°17' W 122°52'0 0.2
2018-Jan-11 16:00N 49°17' W 122°52'0 0.3
2018-Jan-11 15:30N 49°17' W 122°52'0 0.3
2018-Jan-11 15:00N 49°17' W 122°52'1 1.9
2018-Jan-11 14:30N 49°18' W 122°53'0 0.2
2018-Jan-11 14:00N 49°18' W 122°53'4 7.8
2018-Jan-11 13:30N 49°18' W 122°59'0 0.2
2018-Jan-11 13:00N 49°18' W 122°59'2 3.3
2018-Jan-11 12:30N 49°18' W 123°01'0 0.9
2018-Jan-11 12:00N 49°18' W 123°02'0 0.0
2018-Jan-11 11:30N 49°18' W 123°02'0 0.0
2018-Jan-11 11:00N 49°18' W 123°02'0 0.0
2018-Jan-11 10:30N 49°18' W 123°02'0 0.0
2018-Jan-11 10:00N 49°18' W 123°02'0 0.1
2018-Jan-11 09:30N 49°18' W 123°02'0 0.1
2018-Jan-11 09:00N 49°18' W 123°02'0 0.1
2018-Jan-11 08:30N 49°18' W 123°02'0 0.0
2018-Jan-11 08:00N 49°18' W 123°02'0 0.0
2018-Jan-11 07:30N 49°18' W 123°02'0 0.0
2018-Jan-11 07:00N 49°18' W 123°02'0 0.1
2018-Jan-11 06:28N 49°18' W 123°02'0 0.1
2018-Jan-11 06:00N 49°18' W 123°02'0 0.0
2018-Jan-11 05:29N 49°18' W 123°02'0 0.1
2018-Jan-11 05:00N 49°18' W 123°02'0 0.0
2018-Jan-11 04:30N 49°18' W 123°02'0 0.0
2018-Jan-11 04:00N 49°18' W 123°02'0 0.1
2018-Jan-11 03:30N 49°18' W 123°02'0 0.1
2018-Jan-11 03:00N 49°18' W 123°02'0 0.0
2018-Jan-11 02:30N 49°18' W 123°02'0 0.1
2018-Jan-11 02:00N 49°18' W 123°02'0 0.0
2018-Jan-11 01:30N 49°18' W 123°02'0 0.0
2018-Jan-11 01:00N 49°18' W 123°02'0 0.0
2018-Jan-11 00:30N 49°18' W 123°02'0 0.0
2018-Jan-10 23:59N 49°18' W 123°02'0 0.0
2018-Jan-10 23:30N 49°18' W 123°02'0 0.1
2018-Jan-10 23:00N 49°18' W 123°02'0 0.0
2018-Jan-10 22:30N 49°18' W 123°02'0 0.0
2018-Jan-10 22:00N 49°18' W 123°02'0 0.1
2018-Jan-10 21:30N 49°18' W 123°02'0 0.1
2018-Jan-10 21:00N 49°18' W 123°02'0 0.0
2018-Jan-10 20:30N 49°18' W 123°02'0 0.1
2018-Jan-10 20:00N 49°18' W 123°02'0 0.0
2018-Jan-10 19:30N 49°18' W 123°02'0 0.1
2018-Jan-10 19:00N 49°18' W 123°02'0 0.0
2018-Jan-10 18:30N 49°18' W 123°02'0 0.0
2018-Jan-10 18:00N 49°18' W 123°02'0 0.1
2018-Jan-10 17:30N 49°18' W 123°02'0 0.0
2018-Jan-10 17:00N 49°18' W 123°02'0 0.1
2018-Jan-10 16:30N 49°18' W 123°02'0 0.1
2018-Jan-10 16:00N 49°18' W 123°02'0 0.0
2018-Jan-10 15:30N 49°18' W 123°02'0 0.1
2018-Jan-10 15:01N 49°18' W 123°02'0 0.0
2018-Jan-10 14:30N 49°18' W 123°02'0 0.1
2018-Jan-10 14:00N 49°18' W 123°02'0 0.0
2018-Jan-10 13:30N 49°18' W 123°02'0 0.0
2018-Jan-10 13:00N 49°18' W 123°02'0 0.0
2018-Jan-10 12:29N 49°18' W 123°02'0 0.1
2018-Jan-10 12:00N 49°18' W 123°02'0 0.1
2018-Jan-10 11:30N 49°18' W 123°02'0 0.0
2018-Jan-10 11:00N 49°18' W 123°02'0 0.0
2018-Jan-10 10:30N 49°18' W 123°02'0 0.1
2018-Jan-10 10:01N 49°18' W 123°02'0 0.1
2018-Jan-10 09:30N 49°18' W 123°02'0 0.1
2018-Jan-10 09:00N 49°18' W 123°02'0 0.1
2018-Jan-10 08:30N 49°18' W 123°02'0 0.0
2018-Jan-10 08:00N 49°18' W 123°02'0 0.0
2018-Jan-10 07:30N 49°18' W 123°02'0 0.1
2018-Jan-10 07:00N 49°18' W 123°02'0 0.0
2018-Jan-10 06:30N 49°18' W 123°02'0 0.1
2018-Jan-10 06:00N 49°18' W 123°02'0 0.1
2018-Jan-10 05:29N 49°18' W 123°02'0 0.1
2018-Jan-10 04:59N 49°18' W 123°02'0 0.1
2018-Jan-10 04:30N 49°18' W 123°02'0 0.1
2018-Jan-10 04:00N 49°18' W 123°02'0 0.1
2018-Jan-10 03:30N 49°18' W 123°02'0 0.1
2018-Jan-10 03:00N 49°18' W 123°02'0 0.0
2018-Jan-10 02:31N 49°18' W 123°02'0 0.1
2018-Jan-10 02:00N 49°18' W 123°02'2 4.9
2018-Jan-10 01:30N 49°18' W 122°58'3 6.7
2018-Jan-10 01:00N 49°18' W 122°53'0 0.1
2018-Jan-10 00:30N 49°18' W 122°53'4 7.2
2018-Jan-10 00:00N 49°18' W 122°58'2 4.4
2018-Jan-09 23:30N 49°18' W 123°02'0 0.0
2018-Jan-09 23:00N 49°18' W 123°02'0 0.0
2018-Jan-09 22:29N 49°18' W 123°02'0 0.0
2018-Jan-09 22:00N 49°18' W 123°02'0 0.0
2018-Jan-09 21:30N 49°18' W 123°02'0 0.0
2018-Jan-09 21:00N 49°18' W 123°02'0 0.0
2018-Jan-09 20:30N 49°18' W 123°02'0 0.0
2018-Jan-09 20:00N 49°18' W 123°02'0 0.0
2018-Jan-09 19:30N 49°18' W 123°02'0 0.0
2018-Jan-09 19:00N 49°18' W 123°02'0 0.0
2018-Jan-09 18:27N 49°18' W 123°02'0 0.0
2018-Jan-09 18:00N 49°18' W 123°02'0 0.0
2018-Jan-09 17:30N 49°18' W 123°02'0 0.0
2018-Jan-09 17:00N 49°18' W 123°02'2 3.3
2018-Jan-09 16:31N 49°17' W 123°04'2 4.0
2018-Jan-09 16:00N 49°18' W 123°01'4 8.4
2018-Jan-09 15:30N 49°18' W 122°55'1 2.2
2018-Jan-09 15:00N 49°18' W 122°53'1 1.3
2018-Jan-09 14:30N 49°18' W 122°54'4 8.8
2018-Jan-09 14:00N 49°18' W 123°01'1 1.2
2018-Jan-09 13:28N 49°18' W 123°02'0 0.0
2018-Jan-09 13:00N 49°18' W 123°02'0 0.0
2018-Jan-09 12:30N 49°18' W 123°02'0 0.0
2018-Jan-09 12:00N 49°18' W 123°02'0 0.0
2018-Jan-09 11:30N 49°18' W 123°02'0 0.0
2018-Jan-09 11:00N 49°18' W 123°02'0 0.0
2018-Jan-09 10:30N 49°18' W 123°02'0 0.0
2018-Jan-09 10:01N 49°18' W 123°02'0 0.0
2018-Jan-09 09:30N 49°18' W 123°02'0 0.0
2018-Jan-09 09:01N 49°18' W 123°02'0 0.0
2018-Jan-09 08:30N 49°18' W 123°02'0 0.0
2018-Jan-09 08:00N 49°18' W 123°02'0 0.0
2018-Jan-09 07:30N 49°18' W 123°02'0 0.0
2018-Jan-09 07:00N 49°18' W 123°02'0 0.0
2018-Jan-09 06:30N 49°18' W 123°02'0 0.0
2018-Jan-09 06:00N 49°18' W 123°02'0 0.0
2018-Jan-09 05:30N 49°18' W 123°02'0 0.0
2018-Jan-09 04:58N 49°18' W 123°02'0 0.0
2018-Jan-09 04:30N 49°18' W 123°02'0 0.0
2018-Jan-09 04:00N 49°18' W 123°02'0 0.0
2018-Jan-09 03:30N 49°18' W 123°02'2 4.0
2018-Jan-09 03:00N 49°18' W 122°59'2 4.2
2018-Jan-09 02:31N 49°18' W 123°02'2 3.9
2018-Jan-09 02:00N 49°17' W 123°05'1 1.0
2018-Jan-09 01:30N 49°17' W 123°04'2 3.2
2018-Jan-09 01:00N 49°18' W 123°02'  
Track history (hours):
 
Tides and Currents Weather Stations Pressure Air Temp Water Temp Dewpoint Dewpoint Depression Visibility Wind Speed Wind Dir Waves Ship Positions

Finlay

Last reported at 2018-Jan-18 04:00 UTC. Time now 2018-Jan-18 04:16 UTC.
Position N 49°18' W 123°02'.

Length 13 m; draft 2.2 m.

Type: Towing. MMSI: 316013688.

Date/timePositionNaut miles runAvg speedWind from/ knotsBaromVisibWave heightAir tempDewpointWater temp
2018-Jan-18 04:00N 49°18' W 123°02'0 0.0
2018-Jan-18 03:29N 49°18' W 123°02'0 0.0
2018-Jan-18 03:00N 49°18' W 123°02'0 0.0
2018-Jan-18 02:30N 49°18' W 123°02'0 0.0
2018-Jan-18 02:00N 49°18' W 123°02'0 0.0
2018-Jan-18 01:30N 49°18' W 123°02'0 0.0
2018-Jan-18 01:00N 49°18' W 123°02'1 0.8
2018-Jan-18 00:00N 49°18' W 123°03'0 0.0
2018-Jan-17 23:55N 49°18' W 123°03'  
2018-Jan-12 15:00N 49°18' W 122°57'3 5.4
2018-Jan-12 14:30N 49°18' W 122°53'0 0.2
2018-Jan-12 14:00N 49°18' W 122°53'3 5.9
2018-Jan-12 13:30N 49°18' W 122°57'3 5.9
2018-Jan-12 13:00N 49°18' W 123°02'0 0.0
2018-Jan-11 23:06N 49°18' W 123°02'0 0.4
2018-Jan-11 23:00N 49°18' W 123°02'2 3.7
2018-Jan-11 22:31N 49°17' W 123°05'1 1.9
2018-Jan-11 22:00N 49°18' W 123°03'3 5.4
2018-Jan-11 21:30N 49°18' W 122°59'3 6.6
2018-Jan-11 20:58N 49°18' W 122°54'0 0.1
2018-Jan-11 20:30N 49°18' W 122°54'4 8.4
2018-Jan-11 20:00N 49°18' W 122°60'3 5.6
2018-Jan-11 19:30N 49°17' W 123°04'2 4.6
2018-Jan-11 19:00N 49°18' W 123°07'0 0.8
2018-Jan-11 18:30N 49°19' W 123°08'2 4.8
2018-Jan-11 18:00N 49°18' W 123°04'2 3.4
2018-Jan-11 17:30N 49°18' W 123°01'2 5.0
2018-Jan-11 17:01N 49°18' W 122°58'4 7.6
2018-Jan-11 16:30N 49°17' W 122°52'0 0.2
2018-Jan-11 16:00N 49°17' W 122°52'0 0.3
2018-Jan-11 15:30N 49°17' W 122°52'0 0.3
2018-Jan-11 15:00N 49°17' W 122°52'1 1.9
2018-Jan-11 14:30N 49°18' W 122°53'0 0.2
2018-Jan-11 14:00N 49°18' W 122°53'4 7.8
2018-Jan-11 13:30N 49°18' W 122°59'0 0.2
2018-Jan-11 13:00N 49°18' W 122°59'2 3.3
2018-Jan-11 12:30N 49°18' W 123°01'0 0.9
2018-Jan-11 12:00N 49°18' W 123°02'0 0.0
2018-Jan-11 11:30N 49°18' W 123°02'0 0.0
2018-Jan-11 11:00N 49°18' W 123°02'0 0.0
2018-Jan-11 10:30N 49°18' W 123°02'0 0.0
2018-Jan-11 10:00N 49°18' W 123°02'0 0.1
2018-Jan-11 09:30N 49°18' W 123°02'0 0.1
2018-Jan-11 09:00N 49°18' W 123°02'0 0.1
2018-Jan-11 08:30N 49°18' W 123°02'0 0.0
2018-Jan-11 08:00N 49°18' W 123°02'0 0.0
2018-Jan-11 07:30N 49°18' W 123°02'0 0.0
2018-Jan-11 07:00N 49°18' W 123°02'0 0.1
2018-Jan-11 06:28N 49°18' W 123°02'0 0.1
2018-Jan-11 06:00N 49°18' W 123°02'0 0.0
2018-Jan-11 05:29N 49°18' W 123°02'0 0.1
2018-Jan-11 05:00N 49°18' W 123°02'0 0.0
2018-Jan-11 04:30N 49°18' W 123°02'0 0.0
2018-Jan-11 04:00N 49°18' W 123°02'0 0.1
2018-Jan-11 03:30N 49°18' W 123°02'0 0.1
2018-Jan-11 03:00N 49°18' W 123°02'0 0.0
2018-Jan-11 02:30N 49°18' W 123°02'0 0.1
2018-Jan-11 02:00N 49°18' W 123°02'0 0.0
2018-Jan-11 01:30N 49°18' W 123°02'0 0.0
2018-Jan-11 01:00N 49°18' W 123°02'0 0.0
2018-Jan-11 00:30N 49°18' W 123°02'0 0.0
2018-Jan-10 23:59N 49°18' W 123°02'0 0.0
2018-Jan-10 23:30N 49°18' W 123°02'0 0.1
2018-Jan-10 23:00N 49°18' W 123°02'0 0.0
2018-Jan-10 22:30N 49°18' W 123°02'0 0.0
2018-Jan-10 22:00N 49°18' W 123°02'0 0.1
2018-Jan-10 21:30N 49°18' W 123°02'0 0.1
2018-Jan-10 21:00N 49°18' W 123°02'0 0.0
2018-Jan-10 20:30N 49°18' W 123°02'0 0.1
2018-Jan-10 20:00N 49°18' W 123°02'0 0.0
2018-Jan-10 19:30N 49°18' W 123°02'0 0.1
2018-Jan-10 19:00N 49°18' W 123°02'0 0.0
2018-Jan-10 18:30N 49°18' W 123°02'0 0.0
2018-Jan-10 18:00N 49°18' W 123°02'0 0.1
2018-Jan-10 17:30N 49°18' W 123°02'0 0.0
2018-Jan-10 17:00N 49°18' W 123°02'0 0.1
2018-Jan-10 16:30N 49°18' W 123°02'0 0.1
2018-Jan-10 16:00N 49°18' W 123°02'0 0.0
2018-Jan-10 15:30N 49°18' W 123°02'0 0.1
2018-Jan-10 15:01N 49°18' W 123°02'0 0.0
2018-Jan-10 14:30N 49°18' W 123°02'0 0.1
2018-Jan-10 14:00N 49°18' W 123°02'0 0.0
2018-Jan-10 13:30N 49°18' W 123°02'0 0.0
2018-Jan-10 13:00N 49°18' W 123°02'0 0.0
2018-Jan-10 12:29N 49°18' W 123°02'0 0.1
2018-Jan-10 12:00N 49°18' W 123°02'0 0.1
2018-Jan-10 11:30N 49°18' W 123°02'0 0.0
2018-Jan-10 11:00N 49°18' W 123°02'0 0.0
2018-Jan-10 10:30N 49°18' W 123°02'0 0.1
2018-Jan-10 10:01N 49°18' W 123°02'0 0.1
2018-Jan-10 09:30N 49°18' W 123°02'0 0.1
2018-Jan-10 09:00N 49°18' W 123°02'0 0.1
2018-Jan-10 08:30N 49°18' W 123°02'0 0.0
2018-Jan-10 08:00N 49°18' W 123°02'0 0.0
2018-Jan-10 07:30N 49°18' W 123°02'0 0.1
2018-Jan-10 07:00N 49°18' W 123°02'0 0.0
2018-Jan-10 06:30N 49°18' W 123°02'0 0.1
2018-Jan-10 06:00N 49°18' W 123°02'0 0.1
2018-Jan-10 05:29N 49°18' W 123°02'0 0.1
2018-Jan-10 04:59N 49°18' W 123°02'0 0.1
2018-Jan-10 04:30N 49°18' W 123°02'0 0.1
2018-Jan-10 04:00N 49°18' W 123°02'0 0.1
2018-Jan-10 03:30N 49°18' W 123°02'0 0.1
2018-Jan-10 03:00N 49°18' W 123°02'0 0.0
2018-Jan-10 02:31N 49°18' W 123°02'0 0.1
2018-Jan-10 02:00N 49°18' W 123°02'2 4.9
2018-Jan-10 01:30N 49°18' W 122°58'3 6.7
2018-Jan-10 01:00N 49°18' W 122°53'0 0.1
2018-Jan-10 00:30N 49°18' W 122°53'4 7.2
2018-Jan-10 00:00N 49°18' W 122°58'2 4.4
2018-Jan-09 23:30N 49°18' W 123°02'0 0.0
2018-Jan-09 23:00N 49°18' W 123°02'0 0.0
2018-Jan-09 22:29N 49°18' W 123°02'0 0.0
2018-Jan-09 22:00N 49°18' W 123°02'0 0.0
2018-Jan-09 21:30N 49°18' W 123°02'0 0.0
2018-Jan-09 21:00N 49°18' W 123°02'0 0.0
2018-Jan-09 20:30N 49°18' W 123°02'0 0.0
2018-Jan-09 20:00N 49°18' W 123°02'0 0.0
2018-Jan-09 19:30N 49°18' W 123°02'0 0.0
2018-Jan-09 19:00N 49°18' W 123°02'0 0.0
2018-Jan-09 18:27N 49°18' W 123°02'0 0.0
2018-Jan-09 18:00N 49°18' W 123°02'0 0.0
2018-Jan-09 17:30N 49°18' W 123°02'0 0.0
2018-Jan-09 17:00N 49°18' W 123°02'2 3.3
2018-Jan-09 16:31N 49°17' W 123°04'2 4.0
2018-Jan-09 16:00N 49°18' W 123°01'4 8.4
2018-Jan-09 15:30N 49°18' W 122°55'1 2.2
2018-Jan-09 15:00N 49°18' W 122°53'1 1.3
2018-Jan-09 14:30N 49°18' W 122°54'4 8.8
2018-Jan-09 14:00N 49°18' W 123°01'1 1.2
2018-Jan-09 13:28N 49°18' W 123°02'0 0.0
2018-Jan-09 13:00N 49°18' W 123°02'0 0.0
2018-Jan-09 12:30N 49°18' W 123°02'0 0.0
2018-Jan-09 12:00N 49°18' W 123°02'0 0.0
2018-Jan-09 11:30N 49°18' W 123°02'0 0.0
2018-Jan-09 11:00N 49°18' W 123°02'0 0.0
2018-Jan-09 10:30N 49°18' W 123°02'0 0.0
2018-Jan-09 10:01N 49°18' W 123°02'0 0.0
2018-Jan-09 09:30N 49°18' W 123°02'0 0.0
2018-Jan-09 09:01N 49°18' W 123°02'0 0.0
2018-Jan-09 08:30N 49°18' W 123°02'0 0.0
2018-Jan-09 08:00N 49°18' W 123°02'0 0.0
2018-Jan-09 07:30N 49°18' W 123°02'0 0.0
2018-Jan-09 07:00N 49°18' W 123°02'0 0.0
2018-Jan-09 06:30N 49°18' W 123°02'0 0.0
2018-Jan-09 06:00N 49°18' W 123°02'0 0.0
2018-Jan-09 05:30N 49°18' W 123°02'0 0.0
2018-Jan-09 04:58N 49°18' W 123°02'0 0.0
2018-Jan-09 04:30N 49°18' W 123°02'0 0.0
2018-Jan-09 04:00N 49°18' W 123°02'0 0.0
2018-Jan-09 03:30N 49°18' W 123°02'2 4.0
2018-Jan-09 03:00N 49°18' W 122°59'2 4.2
2018-Jan-09 02:31N 49°18' W 123°02'2 3.9
2018-Jan-09 02:00N 49°17' W 123°05'1 1.0
2018-Jan-09 01:30N 49°17' W 123°04'2 3.2
2018-Jan-09 01:00N 49°18' W 123°02'  

Dump ship's entire track history